Terminal Aerodrome Forecast
Issued by NWS

Current Version | Previous Version | Text Only | Print | Product List | Glossary On
Versions: 1 2 3 4 5 6 7 8 9 10 11 12 13 14 15 16 17 18 19 20 21 22 23 24 25 26 27
000
FTUS42 KILM 162300
TAFCRE
TAF
KCRE 162320Z 1700/1724 12003KT P6SM FEW030 SCT100
      TEMPO 1705/1709 4SM BR
     FM170900 04003KT 6SM BR FEW008 BKN100
     FM171300 07005KT P6SM BKN020
     FM171700 10006KT P6SM SCT020 BKN040=

USA.gov is the U.S. government's official web portal to all federal, state and local government web resources and services.